Time;durP1;ratioP1;P1;durP2;ratioP2;P2;SDS_P1;SDS_P2;PMS_P1;PMS_P2;Temp;Humidity;BMP_temperature;BMP_pressure;BME280_temperature;BME280_humidity;BME280_pressure;Samples;Min_cycle;Max_cycle;Signal;HPM_P1;HPM_P2
2023/10/12 00:02:09;;;;;;;10.80;2.25;;;14.70;99.90;;;;;;5045414;28;20082;-81
2023/10/12 00:04:50;;;;;;;8.77;1.77;;;13.40;99.90;;;;;;5062887;28;20492;-81
2023/10/12 00:07:16;;;;;;;13.43;1.80;;;14.80;99.90;;;;;;5083817;28;20554;-81
2023/10/12 00:09:48;;;;;;;13.38;1.85;;;14.30;99.90;;;;;;5063303;28;20549;-80
2023/10/12 00:12:24;;;;;;;13.32;1.50;;;13.40;99.90;;;;;;5062340;28;20130;-81
2023/10/12 00:14:56;;;;;;;8.70;2.35;;;13.40;99.90;;;;;;5046540;28;20044;-81
2023/10/12 00:17:28;;;;;;;15.82;2.63;;;13.80;99.90;;;;;;5065642;28;20047;-81
2023/10/12 00:19:53;;;;;;;13.65;2.05;;;13.30;99.90;;;;;;5062065;28;20425;-81
2023/10/12 00:22:19;;;;;;;10.98;1.75;;;13.30;99.90;;;;;;5079447;28;20042;-81
2023/10/12 00:24:45;;;;;;;11.23;2.70;;;13.30;99.90;;;;;;5081359;28;20131;-81
2023/10/12 00:27:15;;;;;;;12.68;2.33;;;14.70;99.90;;;;;;5048691;28;20403;-81
2023/10/12 00:29:41;;;;;;;8.90;1.70;;;13.30;99.90;;;;;;5063007;28;20054;-81
2023/10/12 00:32:08;;;;;;;10.25;1.70;;;13.30;99.90;;;;;;5079493;28;20392;-81
2023/10/12 00:34:46;;;;;;;11.40;2.00;;;13.20;99.90;;;;;;5045381;28;20399;-81
2023/10/12 00:37:12;;;;;;;14.05;2.38;;;13.20;99.90;;;;;;5054637;28;20059;-80
2023/10/12 00:39:45;;;;;;;11.65;2.08;;;13.70;99.90;;;;;;5044960;28;20048;-81
2023/10/12 00:42:17;;;;;;;10.47;2.73;;;13.60;99.90;;;;;;5048119;28;20440;-80
2023/10/12 00:44:43;;;;;;;13.57;2.60;;;14.10;99.90;;;;;;5063328;28;20044;-81
2023/10/12 00:47:12;;;;;;;14.52;1.83;;;13.90;99.90;;;;;;5044787;28;20090;-81
2023/10/12 00:49:41;;;;;;;10.45;1.77;;;13.10;99.90;;;;;;5044318;28;20083;-81
2023/10/12 00:52:22;;;;;;;7.88;1.80;;;13.10;99.90;;;;;;5047656;28;20071;-81
2023/10/12 00:54:55;;;;;;;12.23;1.85;;;14.00;99.90;;;;;;5062975;28;20051;-80
2023/10/12 00:57:22;;;;;;;9.88;2.25;;;14.50;99.90;;;;;;5061021;28;20044;-81
2023/10/12 00:59:51;;;;;;;8.73;1.70;;;13.10;99.90;;;;;;5062092;28;20044;-81
2023/10/12 01:02:20;;;;;;;8.30;1.52;;;13.20;99.90;;;;;;5048032;28;20372;-80
2023/10/12 01:04:48;;;;;;;14.15;2.08;;;13.20;99.90;;;;;;5062447;28;20410;-81
2023/10/12 01:07:25;;;;;;;18.88;2.30;;;14.50;99.90;;;;;;5044877;28;20046;-81
2023/10/12 01:10:02;;;;;;;9.45;2.05;;;13.20;99.90;;;;;;5045223;28;20040;-81
2023/10/12 01:12:30;;;;;;;13.63;1.83;;;13.20;99.90;;;;;;5032687;28;20028;-81
2023/10/12 01:14:56;;;;;;;12.25;2.47;;;13.10;99.90;;;;;;5044693;28;20054;-81
2023/10/12 01:17:29;;;;;;;11.52;1.77;;;13.20;99.90;;;;;;5044556;28;20032;-81
2023/10/12 01:19:55;;;;;;;10.73;1.50;;;13.10;99.90;;;;;;5080659;28;20043;-81
2023/10/12 01:22:27;;;;;;;10.02;2.35;;;14.00;99.90;;;;;;5064549;28;20134;-81
2023/10/12 01:27:22;;;;;;;10.55;2.58;;;14.70;99.90;;;;;;5060598;28;20481;-82
2023/10/12 01:29:48;;;;;;;16.83;2.40;;;13.50;99.90;;;;;;5045367;28;20557;-81
2023/10/12 01:34:44;;;;;;;15.35;2.25;;;13.10;99.90;;;;;;5063067;28;20048;-81
2023/10/12 01:37:41;;;;;;;9.00;2.15;;;14.40;99.90;;;;;;5043556;28;20424;-81
2023/10/12 01:39:58;;;;;;;16.23;2.55;;;14.40;99.90;;;;;;5061834;28;20143;-81
2023/10/12 01:42:49;;;;;;;11.30;2.28;;;13.00;99.90;;;;;;5064081;28;20165;-80
2023/10/12 01:47:56;;;;;;;;;;;13.00;99.90;;;;;;5062004;28;20060;-81
2023/10/12 01:50:25;;;;;;;12.25;1.83;;;13.00;99.90;;;;;;5063700;28;20264;-81
2023/10/12 01:52:58;;;;;;;9.30;1.48;;;13.00;99.90;;;;;;5060949;28;20051;-80
2023/10/12 01:55:32;;;;;;;12.10;2.20;;;13.00;99.90;;;;;;5060022;28;20083;-81
2023/10/12 01:57:58;;;;;;;11.85;2.20;;;14.20;99.90;;;;;;5062714;28;20048;-81
2023/10/12 02:00:28;;;;;;;11.40;1.90;;;13.10;99.90;;;;;;5046520;28;20039;-82
2023/10/12 02:03:06;;;;;;;14.40;2.17;;;13.10;99.90;;;;;;5043703;28;20067;-81
2023/10/12 02:05:36;;;;;;;15.25;2.63;;;13.10;99.90;;;;;;5043471;28;20040;-81
2023/10/12 02:08:05;;;;;;;14.32;2.05;;;13.10;99.90;;;;;;5034195;28;20483;-81
2023/10/12 02:10:54;;;;;;;16.38;2.70;;;13.10;99.90;;;;;;5042888;28;20088;-80
2023/10/12 02:13:17;;;;;;;11.82;2.53;;;13.00;99.90;;;;;;5053663;28;20094;-81
2023/10/12 02:15:43;;;;;;;11.20;2.15;;;14.30;99.90;;;;;;5043663;28;20084;-81
2023/10/12 02:18:14;;;;;;;10.75;1.83;;;14.00;99.90;;;;;;5062779;28;20475;-81
2023/10/12 02:20:54;;;;;;;14.63;2.00;;;13.30;99.90;;;;;;5044802;28;20048;-81
2023/10/12 02:23:21;;;;;;;10.65;1.85;;;13.30;99.90;;;;;;5042591;28;20123;-81
2023/10/12 02:25:50;;;;;;;8.10;2.28;;;14.20;99.90;;;;;;5043864;28;20052;-81
2023/10/12 02:28:22;;;;;;;15.05;1.85;;;13.10;99.90;;;;;;5062962;28;20051;-82
2023/10/12 02:30:54;;;;;;;11.38;2.08;;;13.70;99.90;;;;;;5060811;28;20044;-81
2023/10/12 02:33:27;;;;;;;10.90;1.80;;;13.10;99.90;;;;;;5059880;28;20048;-81
2023/10/12 02:35:58;;;;;;;8.77;2.63;;;13.10;99.90;;;;;;5061071;28;20408;-81
2023/10/12 02:38:27;;;;;;;17.08;2.20;;;14.00;99.90;;;;;;5046078;28;20039;-82
2023/10/12 02:40:58;;;;;;;10.80;2.30;;;13.40;99.90;;;;;;5037486;28;20041;-81
2023/10/12 02:43:27;;;;;;;9.60;2.03;;;13.10;99.90;;;;;;5046442;28;20224;-80
2023/10/12 02:45:54;;;;;;;7.00;2.10;;;13.00;99.90;;;;;;5043782;28;20059;-81
2023/10/12 02:48:26;;;;;;;10.48;2.25;;;13.00;99.90;;;;;;5058728;28;20136;-81
2023/10/12 02:51:06;;;;;;;11.57;1.77;;;13.00;99.90;;;;;;5044114;28;20036;-81
2023/10/12 02:53:39;;;;;;;7.50;1.70;;;13.20;99.90;;;;;;5063051;28;20455;-81
2023/10/12 02:56:05;;;;;;;12.93;2.22;;;13.00;99.90;;;;;;5034317;28;20036;-81
2023/10/12 02:58:32;;;;;;;13.40;2.58;;;13.00;99.90;;;;;;5008612;28;20045;-81
2023/10/12 03:01:16;;;;;;;12.80;2.42;;;13.40;99.90;;;;;;5028371;28;20051;-81
2023/10/12 03:03:48;;;;;;;17.73;2.63;;;13.00;99.90;;;;;;5044098;28;20068;-81
2023/10/12 03:06:32;;;;;;;13.90;3.30;;;13.00;99.90;;;;;;5059351;28;20036;-82
2023/10/12 03:11:27;;;;;;;13.90;2.50;;;13.20;99.90;;;;;;5045831;28;20044;-81
2023/10/12 03:16:25;;;;;;;14.20;2.97;;;14.40;99.90;;;;;;5058607;28;20102;-81
2023/10/12 03:18:57;;;;;;;8.35;2.70;;;12.90;99.90;;;;;;5042703;28;20060;-81
2023/10/12 03:21:23;;;;;;;11.68;3.05;;;12.80;99.90;;;;;;5045867;28;20055;-81
2023/10/12 03:23:49;;;;;;;15.90;3.35;;;13.40;99.90;;;;;;5043440;28;20044;-81
2023/10/12 03:26:25;;;;;;;19.17;3.28;;;14.20;99.90;;;;;;5041575;28;20047;-82
2023/10/12 03:29:07;;;;;;;17.67;3.67;;;13.40;99.90;;;;;;5042780;28;20090;-81
2023/10/12 03:34:29;;;;;;;14.80;3.83;;;12.60;99.90;;;;;;5069871;28;20408;-81
2023/10/12 03:36:58;;;;;;;12.68;3.67;;;14.30;99.90;;;;;;5077425;28;20048;-81
2023/10/12 03:39:27;;;;;;;11.20;2.95;;;12.60;99.90;;;;;;5044553;28;20036;-81
2023/10/12 03:42:09;;;;;;;19.35;3.85;;;12.60;99.90;;;;;;5028949;28;20044;-81
2023/10/12 03:52:19;;;;;;;14.27;6.95;;;12.70;99.90;;;;;;5061963;28;20415;-81
2023/10/12 03:58:15;;;;;;;13.23;4.13;;;12.60;99.90;;;;;;5058299;28;20173;-82
2023/10/12 04:08:37;;;;;;;10.63;2.92;;;13.00;99.90;;;;;;5060173;28;20056;-82
2023/10/12 04:19:03;;;;;;;11.25;2.97;;;12.70;99.90;;;;;;5061275;28;20048;-82
2023/10/12 04:21:50;;;;;;;8.48;2.85;;;12.60;99.90;;;;;;5057910;28;20049;-81
2023/10/12 04:24:27;;;;;;;8.88;2.80;;;12.70;99.90;;;;;;5051981;28;20084;-81
2023/10/12 04:29:59;;;;;;;5.90;2.33;;;12.70;99.90;;;;;;4978075;28;20395;-82
2023/10/12 04:35:19;;;;;;;11.32;2.75;;;13.10;99.90;;;;;;5017667;28;20049;-81
2023/10/12 04:37:48;;;;;;;6.63;2.33;;;13.30;99.90;;;;;;5024285;28;20136;-82
2023/10/12 04:40:36;;;;;;;8.55;2.20;;;13.40;99.90;;;;;;5008800;28;20120;-81
2023/10/12 04:43:06;;;;;;;8.98;2.20;;;12.60;99.90;;;;;;5037932;28;20091;-81
2023/10/12 04:46:05;;;;;;;10.43;2.30;;;12.60;99.90;;;;;;5025835;28;20074;-82
2023/10/12 04:48:19;;;;;;;8.32;2.20;;;14.30;99.90;;;;;;5021118;28;20052;-81
2023/10/12 04:50:59;;;;;;;9.82;2.15;;;14.30;99.90;;;;;;5008886;28;20044;-82
2023/10/12 04:53:35;;;;;;;17.42;3.22;;;13.90;99.90;;;;;;5028809;28;20086;-81
2023/10/12 04:56:10;;;;;;;7.47;2.42;;;12.50;99.90;;;;;;5009788;28;20167;-82
2023/10/12 04:58:42;;;;;;;6.53;1.83;;;12.70;99.90;;;;;;5041876;28;20115;-82
2023/10/12 05:01:20;;;;;;;12.45;4.07;;;12.50;99.90;;;;;;5000962;28;20500;-81
2023/10/12 05:04:07;;;;;;;12.18;4.72;;;12.40;99.90;;;;;;4990086;28;20404;-81
2023/10/12 05:06:34;;;;;;;11.00;2.80;;;12.90;99.90;;;;;;5044505;28;20048;-81
2023/10/12 05:09:10;;;;;;;6.88;2.33;;;13.30;99.90;;;;;;5025378;28;20049;-82
2023/10/12 05:11:36;;;;;;;10.18;2.78;;;12.40;99.90;;;;;;5040494;28;20096;-82
2023/10/12 05:14:11;;;;;;;8.48;2.22;;;12.40;99.90;;;;;;5027084;28;20037;-82
2023/10/12 05:16:42;;;;;;;14.77;2.58;;;12.40;99.90;;;;;;5027797;28;20452;-82
2023/10/12 05:19:09;;;;;;;10.30;1.77;;;12.40;99.90;;;;;;5000188;28;20436;-82
2023/10/12 05:21:38;;;;;;;9.55;3.40;;;12.30;99.90;;;;;;5025508;28;20045;-82
2023/10/12 05:24:05;;;;;;;17.70;6.80;;;12.40;99.90;;;;;;5027049;28;20403;-81
2023/10/12 05:26:32;;;;;;;12.35;3.10;;;12.30;99.90;;;;;;5018998;28;20056;-81
2023/10/12 05:29:17;;;;;;;12.25;2.35;;;12.30;99.90;;;;;;5025456;28;20545;-82
2023/10/12 05:31:58;;;;;;;11.90;2.50;;;12.30;99.90;;;;;;5040319;28;20141;-81
2023/10/12 05:39:50;;;;;;;5.30;1.80;;;12.40;99.90;;;;;;5044335;28;20049;-82
2023/10/12 05:42:22;;;;;;;8.70;2.00;;;13.30;99.90;;;;;;5022656;28;20552;-81
2023/10/12 05:44:52;;;;;;;5.75;1.50;;;12.10;99.90;;;;;;5028421;28;20087;-81
2023/10/12 05:47:28;;;;;;;10.70;2.20;;;12.20;99.90;;;;;;5030313;28;20503;-82
2023/10/12 05:49:54;;;;;;;7.88;1.90;;;12.10;99.90;;;;;;5045652;28;20075;-82
2023/10/12 05:52:24;;;;;;;7.00;1.48;;;12.60;99.90;;;;;;5078031;28;20499;-82
2023/10/12 05:54:59;;;;;;;9.40;1.50;;;12.10;99.90;;;;;;5044299;28;20255;-82
2023/10/12 05:57:29;;;;;;;7.35;2.00;;;12.60;99.90;;;;;;5031348;28;20038;-82
2023/10/12 05:59:58;;;;;;;6.68;1.63;;;12.10;99.90;;;;;;5044543;28;20032;-82
2023/10/12 06:02:28;;;;;;;11.70;2.28;;;12.10;99.90;;;;;;5060696;28;20093;-82
2023/10/12 06:04:54;;;;;;;8.57;1.40;;;12.20;99.90;;;;;;5044313;28;20036;-82
2023/10/12 06:07:20;;;;;;;7.72;1.98;;;12.80;99.90;;;;;;5046701;28;20061;-81
2023/10/12 06:09:46;;;;;;;4.32;1.38;;;13.30;99.90;;;;;;5046349;28;20411;-81
2023/10/12 06:12:18;;;;;;;9.27;1.42;;;11.90;99.90;;;;;;5043389;28;20043;-82
2023/10/12 06:14:53;;;;;;;8.43;2.13;;;11.90;99.90;;;;;;5059401;28;20041;-82
2023/10/12 06:17:30;;;;;;;7.47;1.67;;;13.30;99.90;;;;;;5031022;28;20040;-82
2023/10/12 06:20:11;;;;;;;6.18;1.48;;;12.00;99.90;;;;;;5046289;28;20044;-82
2023/10/12 06:22:38;;;;;;;8.45;1.90;;;11.80;99.90;;;;;;5044190;28;20080;-82
2023/10/12 06:25:10;;;;;;;5.95;1.65;;;13.30;99.90;;;;;;5062271;28;20602;-82
2023/10/12 06:27:38;;;;;;;6.43;1.58;;;11.80;99.90;;;;;;5045617;28;20743;-83
2023/10/12 06:30:16;;;;;;;6.35;1.83;;;11.80;99.90;;;;;;5060209;28;20044;-82
2023/10/12 06:32:42;;;;;;;6.80;1.75;;;11.80;99.90;;;;;;5059492;28;20078;-81
2023/10/12 06:45:51;;;;;;;9.38;6.13;;;11.80;99.90;;;;;;5019377;28;20099;-81
2023/10/12 06:48:43;;;;;;;8.70;2.90;;;11.80;99.90;;;;;;5038854;28;20055;-79
2023/10/12 06:51:15;;;;;;;9.43;2.05;;;12.30;99.90;;;;;;5057661;28;20064;-86
2023/10/12 06:53:51;;;;;;;6.30;2.08;;;12.00;99.90;;;;;;5039814;28;20041;-85
2023/10/12 07:01:51;;;;;;;8.13;1.73;;;11.80;99.90;;;;;;5053575;28;20130;-84
2023/10/12 07:04:21;;;;;;;7.03;1.88;;;11.80;99.90;;;;;;5040317;28;20176;-85
2023/10/12 07:07:00;;;;;;;7.63;2.30;;;11.80;99.90;;;;;;5036060;28;20059;-86
2023/10/12 07:09:39;;;;;;;8.48;2.10;;;11.70;99.90;;;;;;5037906;28;20037;-87
2023/10/12 07:12:19;;;;;;;9.43;2.33;;;11.80;99.90;;;;;;5057208;28;20087;-84
2023/10/12 07:14:52;;;;;;;9.85;1.88;;;12.50;99.90;;;;;;5038499;28;20045;-88
2023/10/12 07:17:18;;;;;;;9.85;2.42;;;11.70;99.90;;;;;;5056386;28;20045;-87
2023/10/12 07:19:53;;;;;;;14.10;2.60;;;11.60;99.90;;;;;;5054565;28;20472;-81
2023/10/12 07:22:20;;;;;;;13.98;2.10;;;13.00;99.90;;;;;;5037520;28;20037;-82
2023/10/12 07:24:52;;;;;;;14.38;2.35;;;12.10;99.90;;;;;;5054873;28;20132;-77
2023/10/12 07:27:19;;;;;;;6.95;2.30;;;12.10;99.90;;;;;;5035108;28;20056;-78
2023/10/12 07:30:14;;;;;;;10.50;2.38;;;11.60;99.90;;;;;;5055040;28;20478;-81
2023/10/12 07:32:44;;;;;;;10.20;2.10;;;11.60;99.90;;;;;;5052841;28;20052;-83
2023/10/12 07:35:27;;;;;;;7.65;2.22;;;11.70;99.90;;;;;;5058222;28;20040;-89
2023/10/12 07:37:53;;;;;;;13.23;2.72;;;11.80;99.90;;;;;;5036036;28;20052;-85
2023/10/12 07:40:19;;;;;;;9.95;2.35;;;11.80;99.90;;;;;;5055077;28;20405;-85
2023/10/12 07:42:48;;;;;;;14.35;2.63;;;11.90;99.90;;;;;;5038120;28;20128;-86
2023/10/12 07:45:16;;;;;;;8.55;2.08;;;13.50;99.90;;;;;;5030161;28;20401;-81
2023/10/12 07:47:58;;;;;;;10.18;2.28;;;11.90;99.90;;;;;;5050307;28;20155;-86
2023/10/12 07:50:25;;;;;;;15.23;2.83;;;11.90;99.90;;;;;;5035344;28;20102;-87
2023/10/12 07:53:05;;;;;;;8.48;2.50;;;12.00;99.90;;;;;;5038127;28;20056;-85
2023/10/12 07:55:31;;;;;;;13.10;2.15;;;12.00;99.90;;;;;;5034978;28;20433;-82
2023/10/12 07:57:57;;;;;;;11.18;2.05;;;12.10;99.90;;;;;;5037955;28;20048;-83
2023/10/12 08:05:42;;;;;;;15.48;1.77;;;12.20;99.90;;;;;;5051908;28;20082;-81
2023/10/12 08:08:17;;;;;;;10.95;1.83;;;12.60;99.90;;;;;;5038447;28;20076;-81
2023/10/12 08:13:16;;;;;;;15.90;3.20;;;12.20;99.90;;;;;;5057045;28;20127;-80
2023/10/12 08:23:49;;;;;;;10.65;2.08;;;12.40;99.90;;;;;;5058245;28;20508;-78
2023/10/12 08:29:17;;;;;;;12.38;2.22;;;12.50;99.90;;;;;;5059446;28;20088;-81
2023/10/12 08:31:43;;;;;;;22.38;3.47;;;12.50;99.90;;;;;;5037560;28;20051;-85
2023/10/12 08:39:50;;;;;;;9.95;1.80;;;12.60;99.90;;;;;;5044675;28;20136;-84
2023/10/12 08:45:00;;;;;;;12.13;1.30;;;12.70;99.90;;;;;;5048515;28;20048;-86
2023/10/12 08:52:31;;;;;;;19.80;2.33;;;12.80;99.90;;;;;;5041349;28;20103;-82
2023/10/12 08:55:12;;;;;;;8.88;2.08;;;12.80;99.90;;;;;;5026034;28;20045;-77
2023/10/12 08:58:01;;;;;;;6.97;1.77;;;12.80;99.90;;;;;;4327403;28;10000716;-82
2023/10/12 09:03:06;;;;;;;6.93;1.45;;;12.80;99.90;;;;;;5036530;28;20415;-83
2023/10/12 09:05:35;;;;;;;17.95;2.35;;;12.90;99.90;;;;;;5046460;28;20637;-80
2023/10/12 09:13:33;;;;;;;9.52;1.80;;;12.10;99.90;;;;;;5050216;28;20163;-81
2023/10/12 09:16:00;;;;;;;10.07;2.38;;;13.00;99.90;;;;;;5025274;28;20547;-79
2023/10/12 09:18:33;;;;;;;9.25;1.40;;;13.00;99.90;;;;;;5022893;28;20051;-79
2023/10/12 09:23:46;;;;;;;15.50;3.70;;;13.10;99.90;;;;;;5043258;28;20633;-80
2023/10/12 09:26:15;;;;;;;8.18;1.38;;;13.10;99.90;;;;;;5024068;28;20049;-79
2023/10/12 09:31:15;;;;;;;13.23;2.53;;;13.20;99.90;;;;;;5042358;28;20083;-83
2023/10/12 09:33:47;;;;;;;6.32;1.45;;;13.20;99.90;;;;;;5024822;28;20059;-83
2023/10/12 09:36:14;;;;;;;10.70;1.98;;;13.20;99.90;;;;;;5026164;28;20049;-82
2023/10/12 09:38:40;;;;;;;9.13;2.13;;;14.40;99.90;;;;;;5039641;28;20055;-80
2023/10/12 09:41:09;;;;;;;11.25;1.80;;;13.20;99.90;;;;;;5025851;28;20045;-81
2023/10/12 09:43:40;;;;;;;10.52;1.65;;;13.30;99.90;;;;;;5060518;28;20048;-78
2023/10/12 09:46:09;;;;;;;14.05;1.98;;;14.50;99.90;;;;;;5041250;28;20127;-81
2023/10/12 09:48:38;;;;;;;7.60;1.58;;;13.40;99.90;;;;;;5023667;28;20400;-81
2023/10/12 09:51:15;;;;;;;9.13;1.25;;;13.50;99.90;;;;;;5041835;28;20041;-79
2023/10/12 09:53:53;;;;;;;12.63;1.27;;;13.50;99.90;;;;;;5027734;28;20049;-78
2023/10/12 09:56:26;;;;;;;7.68;1.08;;;13.50;99.90;;;;;;5040277;28;20048;-81
2023/10/12 09:59:13;;;;;;;9.13;1.42;;;13.60;99.90;;;;;;5043145;28;20115;-81
2023/10/12 10:07:24;;;;;;;8.80;1.40;;;14.40;99.90;;;;;;5044555;28;20045;-84
2023/10/12 10:09:48;;;;;;;9.10;1.25;;;13.70;99.90;;;;;;5053760;28;20048;-85
2023/10/12 10:12:18;;;;;;;14.50;1.73;;;13.70;99.90;;;;;;5040245;28;20041;-86
2023/10/12 10:15:24;;;;;;;11.30;3.05;;;13.70;99.90;;;;;;5039310;28;20481;-86
2023/10/12 10:18:04;;;;;;;10.48;1.88;;;12.40;99.90;;;;;;5047411;28;20041;-82
2023/10/12 10:21:18;;;;;;;11.02;1.65;;;13.80;99.90;;;;;;5048021;28;20053;-79
2023/10/12 10:23:24;;;;;;;7.95;1.67;;;13.80;99.90;;;;;;5034562;28;20094;-81
2023/10/12 10:26:00;;;;;;;10.00;1.40;;;13.80;99.90;;;;;;5042298;28;20036;-85
2023/10/12 10:28:28;;;;;;;9.05;1.77;;;13.80;99.90;;;;;;5031184;28;20037;-84
2023/10/12 10:31:01;;;;;;;9.48;1.35;;;13.90;99.90;;;;;;5044672;28;20087;-84
2023/10/12 10:33:30;;;;;;;12.23;1.80;;;13.90;99.90;;;;;;5036375;28;20039;-80
2023/10/12 10:36:17;;;;;;;7.85;1.35;;;13.80;99.90;;;;;;5041201;28;20056;-81
2023/10/12 10:39:28;;;;;;;14.05;2.17;;;13.90;99.90;;;;;;5039148;28;20060;-81
2023/10/12 10:41:56;;;;;;;6.80;1.70;;;14.90;99.90;;;;;;5047289;28;20494;-82
2023/10/12 10:44:26;;;;;;;8.77;1.83;;;14.00;99.90;;;;;;5059352;28;20060;-82
2023/10/12 10:46:57;;;;;;;10.90;1.25;;;14.10;99.90;;;;;;5035868;28;20094;-82
2023/10/12 10:49:33;;;;;;;7.40;1.60;;;14.20;99.90;;;;;;5069082;28;20675;-83
2023/10/12 10:54:33;;;;;;;12.88;1.98;;;14.30;99.90;;;;;;5058507;28;20072;-80
2023/10/12 10:57:15;;;;;;;14.95;1.77;;;14.30;99.90;;;;;;5078037;28;20059;-81
2023/10/12 10:59:46;;;;;;;12.77;1.88;;;14.50;99.90;;;;;;5040453;28;20173;-82
2023/10/12 11:02:14;;;;;;;11.10;1.33;;;14.40;99.90;;;;;;5042375;28;20083;-82
2023/10/12 11:04:51;;;;;;;9.05;1.50;;;14.40;99.90;;;;;;5057719;28;20165;-83
2023/10/12 11:07:18;;;;;;;;;;;14.40;99.90;;;;;;5064144;28;20055;-83
2023/10/12 11:12:20;;;;;;;7.40;1.10;;;14.50;99.90;;;;;;5057274;28;20109;-81
2023/10/12 11:15:01;;;;;;;11.20;1.17;;;14.50;99.90;;;;;;5050671;28;20748;-81
2023/10/12 11:17:35;;;;;;;9.25;1.35;;;14.50;99.90;;;;;;5034945;28;20036;-81
2023/10/12 11:20:26;;;;;;;10.38;1.33;;;14.50;99.90;;;;;;5042292;28;20032;-82
2023/10/12 11:22:53;;;;;;;11.15;1.75;;;14.50;99.90;;;;;;5044127;28;20039;-84
2023/10/12 11:25:20;;;;;;;10.05;1.40;;;14.60;99.90;;;;;;5069633;28;20048;-83
2023/10/12 11:27:46;;;;;;;9.50;1.85;;;14.60;99.90;;;;;;5044568;28;20036;-80
2023/10/12 11:30:26;;;;;;;6.95;1.20;;;14.60;99.90;;;;;;5040370;28;20044;-81
2023/10/12 11:32:59;;;;;;;8.10;1.10;;;14.70;99.90;;;;;;5044805;28;20145;-81
2023/10/12 11:35:54;;;;;;;8.82;1.23;;;14.60;99.90;;;;;;5025200;28;20041;-80
2023/10/12 11:38:24;;;;;;;11.93;1.50;;;14.60;99.90;;;;;;5050828;28;20099;-80
2023/10/12 11:40:58;;;;;;;8.88;1.85;;;14.60;99.90;;;;;;5004313;28;20044;-83
2023/10/12 11:43:44;;;;;;;11.13;1.17;;;14.60;99.90;;;;;;5016950;28;20046;-81
2023/10/12 11:46:14;;;;;;;8.00;1.70;;;14.60;99.90;;;;;;5034124;28;20068;-83
2023/10/12 11:49:10;;;;;;;8.35;1.60;;;14.60;99.90;;;;;;5034061;28;20046;-81
2023/10/12 11:51:53;;;;;;;8.75;1.60;;;14.60;99.90;;;;;;4989828;28;20550;-82
2023/10/12 11:54:20;;;;;;;9.02;1.90;;;14.60;99.90;;;;;;5028039;28;20048;-80
2023/10/12 11:56:49;;;;;;;10.35;4.00;;;14.60;99.90;;;;;;5036979;28;20139;-83
2023/10/12 11:59:25;;;;;;;12.27;2.65;;;14.60;99.90;;;;;;5010680;28;20045;-83
2023/10/12 12:01:54;;;;;;;7.55;1.63;;;14.60;99.90;;;;;;5020470;28;20400;-83
2023/10/12 12:04:41;;;;;;;15.13;1.80;;;14.60;99.90;;;;;;5024757;28;20127;-82
2023/10/12 12:07:13;;;;;;;9.27;1.40;;;14.60;99.90;;;;;;5022234;28;20563;-81
2023/10/12 12:09:53;;;;;;;10.23;1.70;;;14.50;99.90;;;;;;5017812;28;20071;-83
2023/10/12 12:12:22;;;;;;;7.43;1.35;;;14.60;99.90;;;;;;5013531;28;20040;-83
2023/10/12 12:14:53;;;;;;;9.80;1.48;;;14.60;99.90;;;;;;5021116;28;20494;-84
2023/10/12 12:17:19;;;;;;;9.85;1.30;;;14.50;99.90;;;;;;5028334;28;20171;-83
2023/10/12 12:19:50;;;;;;;6.00;1.30;;;14.50;99.90;;;;;;5044918;28;20040;-83
2023/10/12 12:22:42;;;;;;;9.05;1.58;;;14.50;99.90;;;;;;5052907;28;20052;-83
2023/10/12 12:25:31;;;;;;;14.13;1.40;;;14.50;99.90;;;;;;5000020;28;20505;-84
2023/10/12 12:28:04;;;;;;;8.77;1.63;;;14.60;99.90;;;;;;5044183;28;20144;-81
2023/10/12 12:30:46;;;;;;;8.32;1.35;;;14.60;99.90;;;;;;5031219;28;20050;-83
2023/10/12 12:33:18;;;;;;;6.63;1.35;;;14.60;99.90;;;;;;5038374;28;20694;-81
2023/10/12 12:35:48;;;;;;;8.13;1.35;;;14.50;99.90;;;;;;5028534;28;20098;-83
2023/10/12 12:41:12;;;;;;;9.07;1.73;;;14.50;99.90;;;;;;5026467;28;20408;-81
2023/10/12 12:43:38;;;;;;;6.38;1.55;;;14.50;99.90;;;;;;5040151;28;20060;-82
2023/10/12 12:46:06;;;;;;;11.63;1.52;;;14.40;99.90;;;;;;5026697;28;20108;-83
2023/10/12 12:48:33;;;;;;;6.32;1.63;;;14.50;99.90;;;;;;5023970;28;20079;-80
2023/10/12 12:50:59;;;;;;;8.18;2.00;;;14.50;99.90;;;;;;5022537;28;20511;-82
2023/10/12 12:53:26;;;;;;;8.27;1.25;;;14.50;99.90;;;;;;5020774;28;20040;-83
2023/10/12 12:56:05;;;;;;;10.75;1.52;;;14.40;99.90;;;;;;5042849;28;20052;-82
2023/10/12 12:58:32;;;;;;;10.02;1.25;;;14.40;99.90;;;;;;5039893;28;20076;-81
2023/10/12 13:01:00;;;;;;;9.93;1.00;;;14.90;99.90;;;;;;5037070;28;20440;-83
2023/10/12 13:03:28;;;;;;;5.88;1.48;;;14.00;99.90;;;;;;5007974;28;20131;-83
2023/10/12 13:05:55;;;;;;;12.23;1.40;;;14.40;99.90;;;;;;5018965;28;20052;-83
2023/10/12 13:08:22;;;;;;;7.40;1.48;;;14.40;99.90;;;;;;5022775;28;20033;-80
2023/10/12 13:10:52;;;;;;;11.63;1.50;;;14.40;99.90;;;;;;5027361;28;20127;-81
2023/10/12 13:13:31;;;;;;;7.88;1.27;;;14.40;99.90;;;;;;5035941;28;20044;-82
2023/10/12 13:16:03;;;;;;;13.73;1.42;;;14.40;99.90;;;;;;5028607;28;20450;-83
2023/10/12 13:18:32;;;;;;;8.93;1.30;;;14.40;99.90;;;;;;5014390;28;20057;-82
2023/10/12 13:21:06;;;;;;;10.63;1.45;;;14.40;99.90;;;;;;5009135;28;20041;-83
2023/10/12 13:23:33;;;;;;;9.05;1.65;;;14.40;99.90;;;;;;5023539;28;20080;-82
2023/10/12 13:26:09;;;;;;;9.52;1.63;;;14.40;99.90;;;;;;5040490;28;20135;-83
2023/10/12 13:28:40;;;;;;;5.80;1.35;;;14.40;99.90;;;;;;5022898;28;20057;-81
2023/10/12 13:31:17;;;;;;;11.55;1.77;;;14.40;99.90;;;;;;5040139;28;20710;-83
2023/10/12 13:33:43;;;;;;;11.05;1.60;;;14.40;99.90;;;;;;5024986;28;20063;-83
2023/10/12 13:36:11;;;;;;;9.85;1.25;;;14.90;99.90;;;;;;5018728;28;20070;-82
2023/10/12 13:38:39;;;;;;;9.43;1.50;;;14.30;99.90;;;;;;5040579;28;20064;-82
2023/10/12 13:41:10;;;;;;;7.55;1.33;;;14.40;99.90;;;;;;5039017;28;20048;-80
2023/10/12 13:43:37;;;;;;;12.02;1.60;;;14.40;99.90;;;;;;5046796;28;20056;-80
2023/10/12 13:46:07;;;;;;;10.00;1.73;;;14.40;99.90;;;;;;5074550;28;20476;-80
2023/10/12 13:48:37;;;;;;;8.00;0.98;;;14.30;99.90;;;;;;5044302;28;20043;-80
2023/10/12 13:51:19;;;;;;;8.20;1.30;;;14.40;99.90;;;;;;5056803;28;20396;-83
2023/10/12 13:53:46;;;;;;;7.50;1.67;;;14.30;99.90;;;;;;5045248;28;20052;-80
2023/10/12 13:56:13;;;;;;;8.55;1.33;;;14.30;99.90;;;;;;5050650;28;20094;-81
2023/10/12 13:58:48;;;;;;;7.60;1.20;;;14.20;99.90;;;;;;5064365;28;20416;-80
2023/10/12 14:01:14;;;;;;;11.05;1.65;;;14.10;99.90;;;;;;5032391;28;20037;-83
2023/10/12 14:03:45;;;;;;;12.07;1.95;;;14.30;99.90;;;;;;5062551;28;20083;-82
2023/10/12 14:06:15;;;;;;;16.90;1.77;;;14.10;99.90;;;;;;5065178;28;20464;-82
2023/10/12 14:08:43;;;;;;;6.38;1.42;;;14.20;99.90;;;;;;5063165;28;20621;-82
2023/10/12 14:11:17;;;;;;;10.25;1.10;;;14.10;99.90;;;;;;5037750;28;20115;-83
2023/10/12 14:13:44;;;;;;;6.95;1.60;;;14.10;99.90;;;;;;5062728;28;20119;-82
2023/10/12 14:16:11;;;;;;;14.45;4.45;;;14.20;99.90;;;;;;5043860;28;20047;-83
2023/10/12 14:18:37;;;;;;;12.43;2.38;;;14.10;99.90;;;;;;5058637;28;20048;-83
2023/10/12 14:21:09;;;;;;;15.32;7.70;;;14.20;99.90;;;;;;5059844;28;20044;-83
2023/10/12 14:23:43;;;;;;;16.23;4.75;;;14.10;99.90;;;;;;5046525;28;20044;-83
2023/10/12 14:26:10;;;;;;;;;;;14.00;99.90;;;;;;5062235;28;20178;-83
2023/10/12 14:28:36;;;;;;;14.70;2.15;;;14.00;99.90;;;;;;5042710;28;19927;-83
2023/10/12 14:31:05;;;;;;;10.15;1.42;;;15.40;99.90;;;;;;5059286;28;20041;-83
2023/10/12 14:33:31;;;;;;;10.00;1.58;;;15.30;99.90;;;;;;5046002;28;20102;-82
2023/10/12 14:35:58;;;;;;;8.45;1.45;;;14.80;99.90;;;;;;5062828;28;20044;-84
2023/10/12 14:38:24;;;;;;;6.22;1.30;;;15.10;99.90;;;;;;5077814;28;20054;-83
2023/10/12 14:40:51;;;;;;;9.75;1.35;;;14.00;99.90;;;;;;5041886;28;20496;-83
2023/10/12 14:43:17;;;;;;;11.77;2.03;;;15.00;99.90;;;;;;5061499;28;20132;-83
2023/10/12 14:45:55;;;;;;;5.80;1.50;;;13.80;99.90;;;;;;5045815;28;20040;-83
2023/10/12 14:48:22;;;;;;;12.90;1.60;;;13.70;99.90;;;;;;5038984;28;20464;-83
2023/10/12 14:51:07;;;;;;;9.90;1.70;;;13.70;99.90;;;;;;5042178;28;20048;-83
2023/10/12 14:53:35;;;;;;;10.23;1.48;;;13.70;99.90;;;;;;5035354;28;20040;-83
2023/10/12 14:56:03;;;;;;;6.65;1.20;;;13.60;99.90;;;;;;5042074;28;20072;-83
2023/10/12 14:58:30;;;;;;;13.60;2.00;;;13.70;99.90;;;;;;5050782;28;20123;-84
2023/10/12 15:00:56;;;;;;;9.75;1.90;;;13.60;99.90;;;;;;5041855;28;20131;-83
2023/10/12 15:03:21;;;;;;;8.48;1.48;;;13.60;99.90;;;;;;5045196;28;20475;-83
2023/10/12 15:06:00;;;;;;;5.18;1.40;;;13.50;99.90;;;;;;5045592;28;20044;-83
2023/10/12 15:08:25;;;;;;;10.63;1.77;;;13.50;99.90;;;;;;5041872;28;20064;-83
2023/10/12 15:10:54;;;;;;;13.85;1.77;;;14.30;99.90;;;;;;5041791;28;20052;-84
2023/10/12 15:13:22;;;;;;;9.95;1.75;;;13.40;99.90;;;;;;5045224;28;20045;-83
2023/10/12 15:15:49;;;;;;;7.40;1.75;;;13.40;99.90;;;;;;5044734;28;20044;-83
2023/10/12 15:18:16;;;;;;;9.55;1.67;;;13.10;99.90;;;;;;5060320;28;20048;-83